Share

Peetz, CO (80747)

Sidney Municipal (KSNY) Elev 4304 ft | 41.10 °N, 102.99 °W | Change Station

Current weather conditions updated 57 minutes ago

Clear
Clear
64 °F
Feels Like 64 °F
N
13
Wind Variable Wind from South
Sunrise 6:08 AM
Sunset 7:35 PM
Moon Waning Gibbous

Today is forecast to be Much Warmer than yesterday.

Pressure 29.89 in
Visibility 10.0 miles
Clouds Clear
Dew Point 37 °F
Humidity 37%
Rainfall 0.00 in
Snow Depth Not available.
UV 8 out of 16
Pollen 11.30 out of 12
Air Quality Not available.
Flu Activity Sporadic
METAR KSNY 181653Z AUTO 19011KT 10SM CLR 18/03 A2996 RMK AO2 SLP122 T01780028

More Conditions Fewer Conditions

Pressure 29.89 in
Visibility 10.0 miles
Clouds Clear
Dew Point 37 °F
Humidity 37%
Rainfall 0.00 in
Snow Depth Not available.
UV 8 out of 16
Pollen 11.30 out of 12
Air Quality Not available.
Flu Activity Sporadic
METAR KSNY 181653Z AUTO 19011KT 10SM CLR 18/03 A2996 RMK AO2 SLP122 T01780028

More Conditions Fewer Conditions

10-Day Weather Forecast

Almanac

Astronomy

Apr. 18, 2014 Rise Set
Actual Time 6:08 AM MDT 7:35 PM MDT
Civil Twilight 5:39 AM MDT 8:04 PM MDT
Nautical Twilight 5:05 AM MDT 8:38 PM MDT
Astronomical Twilight 4:28 AM MDT 9:15 PM MDT
Moon 11:23 PM MDT 8:31 AM MDT
Length of Visible Light 14h 24m
Length of Day
13h 26m
Tomorrow will be 2m 33s longer.
Waning Gibbous, 86% of the Moon is Illuminated
Today
Waning Gibbous
Apr 22
Last Quarter
Apr 29
New
May 6
First Quarter
May 14
Full

Today's Extremes

State Highs State Lows

Community

  • What's for Lunch?
    What's for Lunch?
  • SUNRISE THROUGH THE TREES.
    SUNRISE THROUGH THE TREES.
  • Dog Wood Blossoms
    Dog Wood Blossoms
  • Morning Light
    Morning Light
  • New Day
    New Day

WunderPhotos

Upload Photos

1,702,433 photos uploaded!

Nearby

Snow Depth

Station Depth Elevation
Deadman Hill 73 in 10220 ft
Bear Lake 61 in 9500 ft
Wild Basin 58 in 9560 ft
Willow Park 65 in 10700 ft
Niwot 53 in 9910 ft

Coastal Water Temperatures

Place Temperature
No Stations Reporting

Earthquake Activity

City Distance Mag. Time & Date
No recent earthquake activity has been reported nearby.
Minimum magnitude displayed is 2.5.

Nearby Weather Stations

Station Location Temp. Heat Index Dew Point Humidity Wind Precip. Elev Updated Type
Sterling, CO 70.9 °F 77 °F 41 °F 34% SE  at  1.0 mph 0.00 in / hr 3940 ft 11:49 AM MDT Rapid Fire

Show More Stations Show Fewer Stations

What do you think?

We're not finished. Please let us know what you like, what you don't like, and what you are still missing.